Time;durP1;ratioP1;P1;durP2;ratioP2;P2;SDS_P1;SDS_P2;PMS_P1;PMS_P2;Temp;Humidity;BMP_temperature;BMP_pressure;BME280_temperature;BME280_humidity;BME280_pressure;Samples;Min_cycle;Max_cycle;Signal;HPM_P1;HPM_P2
2023/04/08 00:03:34;;;;;;;;;;;9.50;99.90;;;;;;8389706;28;19971;-77
2023/04/08 00:07:36;;;;;;;;;;;9.50;99.90;;;;;;8416115;28;19932;-77
2023/04/08 00:11:38;;;;;;;;;;;9.40;99.90;;;;;;8408594;28;19981;-77
2023/04/08 00:15:39;;;;;;;;;;;9.40;99.90;;;;;;8391341;28;19924;-78
2023/04/08 00:19:41;;;;;;;;;;;9.40;99.90;;;;;;8423773;28;19923;-77
2023/04/08 00:23:43;;;;;;;;;;;9.40;99.90;;;;;;8405254;28;20111;-77
2023/04/08 00:27:44;;;;;;;;;;;9.30;99.90;;;;;;8383617;28;19924;-77
2023/04/08 00:31:46;;;;;;;;;;;9.30;99.90;;;;;;8384773;28;20015;-77
2023/04/08 00:35:48;;;;;;;;;;;9.30;99.90;;;;;;8388303;28;20400;-77
2023/04/08 00:39:52;;;;;;;;;;;9.20;99.90;;;;;;8397281;28;20384;-78
2023/04/08 00:43:53;;;;;;;;;;;9.20;99.90;;;;;;8387359;28;19929;-77
2023/04/08 00:47:55;;;;;;;;;;;9.20;99.90;;;;;;8398929;28;19924;-77
2023/04/08 00:51:57;;;;;;;;;;;9.10;99.90;;;;;;8387209;28;19928;-77
2023/04/08 00:56:00;;;;;;;;;;;9.10;99.90;;;;;;8405081;28;19925;-78
2023/04/08 01:00:04;;;;;;;;;;;9.10;99.90;;;;;;8381643;28;19936;-77
2023/04/08 01:04:12;;;;;;;;;;;9.10;99.90;;;;;;8370507;28;19932;-77
2023/04/08 01:08:14;;;;;;;;;;;9.00;99.90;;;;;;8386814;28;19976;-77
2023/04/08 01:12:18;;;;;;;;;;;9.00;99.90;;;;;;8384668;28;19924;-77
2023/04/08 01:16:20;;;;;;;;;;;9.00;99.90;;;;;;8396998;28;19924;-77
2023/04/08 01:20:23;;;;;;;;;;;8.90;99.90;;;;;;8389570;28;19970;-77
2023/04/08 01:24:27;;;;;;;;;;;8.90;99.90;;;;;;8381445;28;19928;-78
2023/04/08 01:28:30;;;;;;;;;;;8.90;99.90;;;;;;8385996;28;19959;-77
2023/04/08 01:32:32;;;;;;;;;;;8.80;99.90;;;;;;8416099;28;19964;-77
2023/04/08 01:36:36;;;;;;;;;;;8.80;99.90;;;;;;8392539;28;19928;-77
2023/04/08 01:40:38;;;;;;;;;;;8.80;99.90;;;;;;8386397;28;20019;-78
2023/04/08 01:44:41;;;;;;;;;;;8.80;99.90;;;;;;8378381;28;19925;-77
2023/04/08 01:48:43;;;;;;;;;;;8.80;99.90;;;;;;8376819;28;19977;-77
2023/04/08 01:52:46;;;;;;;;;;;8.80;99.90;;;;;;8385697;28;20026;-77
2023/04/08 01:56:49;;;;;;;;;;;8.80;99.90;;;;;;8376422;28;20000;-77
2023/04/08 02:00:53;;;;;;;;;;;8.70;99.90;;;;;;8373942;28;20015;-77
2023/04/08 02:04:54;;;;;;;;;;;8.70;99.90;;;;;;8369118;28;20016;-77
2023/04/08 02:08:56;;;;;;;;;;;8.60;99.90;;;;;;8378218;28;19936;-77
2023/04/08 02:12:58;;;;;;;;;;;8.60;99.90;;;;;;8387124;28;19928;-77
2023/04/08 02:17:02;;;;;;;;;;;8.50;99.90;;;;;;8418765;28;19925;-77
2023/04/08 02:21:10;;;;;;;;;;;8.50;99.90;;;;;;8386578;28;19928;-77
2023/04/08 02:25:16;;;;;;;;;;;8.40;99.90;;;;;;8372344;28;19925;-77
2023/04/08 02:29:18;;;;;;;;;;;8.40;99.90;;;;;;8378354;28;19932;-77
2023/04/08 02:33:21;;;;;;;;;;;8.40;99.90;;;;;;8401091;28;19963;-77
2023/04/08 02:37:23;;;;;;;;;;;8.30;99.90;;;;;;8406882;28;20245;-77
2023/04/08 02:41:27;;;;;;;;;;;8.40;99.90;;;;;;8387864;28;20054;-77
2023/04/08 02:45:30;;;;;;;;;;;8.30;99.90;;;;;;8397382;28;20404;-78
2023/04/08 02:49:32;;;;;;;;;;;8.30;99.90;;;;;;8388744;28;19924;-77
2023/04/08 02:53:33;;;;;;;;;;;8.30;99.90;;;;;;8415661;28;20015;-77
2023/04/08 02:57:36;;;;;;;;;;;8.20;99.90;;;;;;8387438;28;19979;-77
2023/04/08 03:01:37;;;;;;;;;;;8.20;99.90;;;;;;8395558;28;19924;-77
2023/04/08 03:05:39;;;;;;;;;;;8.20;99.90;;;;;;8387017;28;19940;-77
2023/04/08 03:09:41;;;;;;;;;;;8.10;99.90;;;;;;8388555;28;19936;-77
2023/04/08 03:13:42;;;;;;;;;;;8.10;99.90;;;;;;8385591;28;19933;-77
2023/04/08 03:17:44;;;;;;;;;;;8.10;99.90;;;;;;8384401;28;19929;-77
2023/04/08 03:21:46;;;;;;;;;;;8.10;99.90;;;;;;8404579;28;20372;-77
2023/04/08 03:25:48;;;;;;;;;;;8.00;99.90;;;;;;8390211;28;19933;-77
2023/04/08 03:29:49;;;;;;;;;;;8.00;99.90;;;;;;8373630;28;19932;-77
2023/04/08 03:33:51;;;;;;;;;;;8.00;99.90;;;;;;8395089;28;20050;-78
2023/04/08 03:37:53;;;;;;;;;;;7.90;99.90;;;;;;8382568;28;20020;-77
2023/04/08 03:41:56;;;;;;;;;;;7.90;99.90;;;;;;8379497;28;20401;-77
2023/04/08 03:45:57;;;;;;;;;;;7.90;99.90;;;;;;8379753;28;19964;-77
2023/04/08 03:49:59;;;;;;;;;;;7.90;99.90;;;;;;8391059;28;20261;-77
2023/04/08 03:54:01;;;;;;;;;;;7.90;99.90;;;;;;8386011;28;20290;-77
2023/04/08 03:58:02;;;;;;;;;;;7.90;99.90;;;;;;8399000;28;19924;-77
2023/04/08 04:02:04;;;;;;;;;;;7.90;99.90;;;;;;8389496;28;19923;-77
2023/04/08 04:06:06;;;;;;;;;;;7.80;99.90;;;;;;8376204;28;20387;-77
2023/04/08 04:10:07;;;;;;;;;;;7.80;99.90;;;;;;8391170;28;19960;-77
2023/04/08 04:14:09;;;;;;;;;;;7.80;99.90;;;;;;8382179;28;19969;-78
2023/04/08 04:18:11;;;;;;;;;;;7.80;99.90;;;;;;8393697;28;19947;-78
2023/04/08 04:22:12;;;;;;;;;;;7.80;99.90;;;;;;8389792;28;19931;-78
2023/04/08 04:26:14;;;;;;;;;;;7.80;99.90;;;;;;8374751;28;20477;-77
2023/04/08 04:30:16;;;;;;;;;;;7.80;99.90;;;;;;8382460;28;19925;-78
2023/04/08 04:34:17;;;;;;;;;;;7.80;99.90;;;;;;8393274;28;20839;-77
2023/04/08 04:38:20;;;;;;;;;;;7.80;99.90;;;;;;8385612;28;20320;-77
2023/04/08 04:42:21;;;;;;;;;;;7.80;99.90;;;;;;8399342;28;19932;-77
2023/04/08 04:46:23;;;;;;;;;;;7.80;99.90;;;;;;8373901;28;19932;-77
2023/04/08 04:50:25;;;;;;;;;;;7.80;99.90;;;;;;8387116;28;19990;-77
2023/04/08 04:54:26;;;;;;;;;;;7.80;99.90;;;;;;8379859;28;20325;-77
2023/04/08 04:58:28;;;;;;;;;;;7.80;99.90;;;;;;8382836;28;20032;-77
2023/04/08 05:02:30;;;;;;;;;;;7.70;99.90;;;;;;8381201;28;20470;-77
2023/04/08 05:06:32;;;;;;;;;;;7.70;99.90;;;;;;8384408;28;19928;-77
2023/04/08 05:10:34;;;;;;;;;;;7.70;99.90;;;;;;8371187;28;19925;-77
2023/04/08 05:14:35;;;;;;;;;;;7.70;99.90;;;;;;8413732;28;19931;-77
2023/04/08 05:18:37;;;;;;;;;;;7.70;99.90;;;;;;8384006;28;20145;-77
2023/04/08 05:22:39;;;;;;;;;;;7.70;99.90;;;;;;8392180;28;19928;-77
2023/04/08 05:26:40;;;;;;;;;;;7.60;99.90;;;;;;8382372;28;20300;-77
2023/04/08 05:30:42;;;;;;;;;;;7.60;99.90;;;;;;8381210;28;19935;-77
2023/04/08 05:34:44;;;;;;;;;;;7.60;99.90;;;;;;8413294;28;19924;-77
2023/04/08 05:38:45;;;;;;;;;;;7.50;99.90;;;;;;8379658;28;19978;-77
2023/04/08 05:42:47;;;;;;;;;;;7.50;99.90;;;;;;8391820;28;20352;-77
2023/04/08 05:46:49;;;;;;;;;;;7.60;99.90;;;;;;8367680;28;20406;-77
2023/04/08 05:50:50;;;;;;;;;;;7.60;99.90;;;;;;8372557;28;19932;-77
2023/04/08 05:54:52;;;;;;;;;;;7.60;99.90;;;;;;8385477;28;19943;-77
2023/04/08 05:58:54;;;;;;;;;;;7.70;99.90;;;;;;8389674;28;20287;-77
2023/04/08 06:02:56;;;;;;;;;;;7.70;99.90;;;;;;8373229;28;19979;-77
2023/04/08 06:06:59;;;;;;;;;;;7.70;99.90;;;;;;8371722;28;19929;-77
2023/04/08 06:11:03;;;;;;;;;;;7.80;99.90;;;;;;8385172;28;20292;-77
2023/04/08 06:15:05;;;;;;;;;;;7.80;99.90;;;;;;8393106;28;20023;-77
2023/04/08 06:19:07;;;;;;;;;;;7.80;99.90;;;;;;8376811;28;20463;-77
2023/04/08 06:23:09;;;;;;;;;;;7.90;99.90;;;;;;8377554;28;19924;-77
2023/04/08 06:27:10;;;;;;;;;;;7.90;99.90;;;;;;8407238;28;20031;-77
2023/04/08 06:31:12;;;;;;;;;;;7.90;99.90;;;;;;8388427;28;19935;-77
2023/04/08 06:35:14;;;;;;;;;;;7.90;99.90;;;;;;8389898;28;19978;-77
2023/04/08 06:39:18;;;;;;;;;;;8.00;99.90;;;;;;8386076;28;19928;-77
2023/04/08 06:43:19;;;;;;;;;;;8.00;99.90;;;;;;8393256;28;19925;-77
2023/04/08 06:47:21;;;;;;;;;;;8.00;99.90;;;;;;8384987;28;20007;-77
2023/04/08 06:51:23;;;;;;;;;;;8.00;99.90;;;;;;8377758;28;19932;-77
2023/04/08 06:55:24;;;;;;;;;;;8.00;99.90;;;;;;8379966;28;19964;-77
2023/04/08 06:59:26;;;;;;;;;;;8.00;99.90;;;;;;8395817;28;20457;-77
2023/04/08 07:03:28;;;;;;;;;;;8.00;99.90;;;;;;8396697;28;19932;-77
2023/04/08 07:07:30;;;;;;;;;;;7.90;99.90;;;;;;8381352;28;19925;-77
2023/04/08 07:11:32;;;;;;;;;;;7.90;99.90;;;;;;8378668;28;19975;-77
2023/04/08 07:15:34;;;;;;;;;;;8.00;99.90;;;;;;8434967;27;19931;-77
2023/04/08 07:19:36;;;;;;;;;;;7.90;99.90;;;;;;8382385;28;20001;-77
2023/04/08 07:23:38;;;;;;;;;;;7.90;99.90;;;;;;8384336;28;20384;-77
2023/04/08 07:27:39;;;;;;;;;;;8.00;99.90;;;;;;8385811;28;19924;-77
2023/04/08 07:31:44;;;;;;;;;;;8.20;99.90;;;;;;8374144;28;19940;-77
2023/04/08 07:35:45;;;;;;;;;;;8.30;99.90;;;;;;8372432;28;19935;-77
2023/04/08 07:39:47;;;;;;;;;;;8.40;99.90;;;;;;8372269;28;19951;-77
2023/04/08 07:43:49;;;;;;;;;;;8.60;99.90;;;;;;8392466;28;20390;-77
2023/04/08 07:47:50;;;;;;;;;;;8.80;99.90;;;;;;8401205;28;19931;-77
2023/04/08 07:51:52;;;;;;;;;;;9.00;99.90;;;;;;8376115;28;19925;-77
2023/04/08 07:55:53;;;;;;;;;;;9.30;99.90;;;;;;8368653;28;19925;-77
2023/04/08 07:59:55;;;;;;;;;;;9.50;99.90;;;;;;8371410;28;19932;-77
2023/04/08 08:03:57;;;;;;;;;;;9.70;99.90;;;;;;8373196;28;19963;-77
2023/04/08 08:07:59;;;;;;;;;;;9.90;99.90;;;;;;8381390;28;19924;-76
2023/04/08 08:12:00;;;;;;;;;;;10.10;99.90;;;;;;8394516;28;19934;-77
2023/04/08 08:16:02;;;;;;;;;;;10.20;99.90;;;;;;8397783;28;19979;-77
2023/04/08 08:20:04;;;;;;;;;;;10.20;99.90;;;;;;8372549;28;19924;-76
2023/04/08 08:24:06;;;;;;;;;;;10.40;99.90;;;;;;8385174;28;19928;-77
2023/04/08 08:28:07;;;;;;;;;;;10.60;99.90;;;;;;8400932;28;20318;-77
2023/04/08 08:32:09;;;;;;;;;;;10.70;99.90;;;;;;8374760;28;20691;-77
2023/04/08 08:36:11;;;;;;;;;;;10.90;99.90;;;;;;8387934;28;19924;-77
2023/04/08 08:40:13;;;;;;;;;;;11.00;99.90;;;;;;8380457;28;19925;-77
2023/04/08 08:44:15;;;;;;;;;;;11.20;99.90;;;;;;8385969;28;19925;-77
2023/04/08 08:48:16;;;;;;;;;;;11.40;99.90;;;;;;8381685;28;20342;-77
2023/04/08 08:52:18;;;;;;;;;;;11.60;99.90;;;;;;8377999;28;19939;-77
2023/04/08 08:56:20;;;;;;;;;;;11.80;99.90;;;;;;8397315;28;19932;-77
2023/04/08 09:00:32;;;;;;;;;;;12.00;99.90;;;;;;8372698;28;20269;-77
2023/04/08 09:04:35;;;;;;;;;;;12.20;99.90;;;;;;8375168;28;19936;-77
2023/04/08 09:08:37;;;;;;;;;;;12.40;99.90;;;;;;8405677;28;20291;-77
2023/04/08 09:12:55;;;;;;;;;;;12.60;99.90;;;;;;8388366;28;20288;-77
2023/04/08 09:16:56;;;;;;;;;;;12.80;99.90;;;;;;8389326;28;19929;-77
2023/04/08 09:20:59;;;;;;;;;;;13.00;99.90;;;;;;8391071;28;20030;-77
2023/04/08 09:25:21;;;;;;;;;;;13.20;99.90;;;;;;8383029;28;19932;-77
2023/04/08 09:29:23;;;;;;;;;;;13.30;99.90;;;;;;8378371;28;19924;-77
2023/04/08 09:33:30;;;;;;;;;;;13.30;99.90;;;;;;8394439;28;19935;-77
2023/04/08 09:37:32;;;;;;;;;;;13.40;99.90;;;;;;8385126;28;19968;-77
2023/04/08 09:41:34;;;;;;;;;;;13.50;99.90;;;;;;8377926;28;20400;-77
2023/04/08 09:45:38;;;;;;;;;;;13.60;99.90;;;;;;8376835;28;20008;-77
2023/04/08 09:49:45;;;;;;;;;;;13.70;99.90;;;;;;8370137;28;19969;-77
2023/04/08 09:53:48;;;;;;;;;;;13.80;99.90;;;;;;8381429;28;19968;-77
2023/04/08 09:58:07;;;;;;;;;;;14.00;99.90;;;;;;8403062;28;20023;-77
2023/04/08 10:02:10;;;;;;;;;;;14.10;99.90;;;;;;8377921;28;19925;-77
2023/04/08 10:06:11;;;;;;;;;;;14.40;99.90;;;;;;8396562;28;19924;-77
2023/04/08 10:10:13;;;;;;;;;;;14.60;99.90;;;;;;8373956;28;19937;-77
2023/04/08 10:14:15;;;;;;;;;;;15.00;99.90;;;;;;8385458;28;19928;-77
2023/04/08 10:18:20;;;;;;;;;;;15.30;99.90;;;;;;8371280;28;19928;-77
2023/04/08 10:22:28;;;;;;;;;;;15.70;99.90;;;;;;8383286;28;19928;-77
2023/04/08 10:26:43;;;;;;;;;;;16.10;99.90;;;;;;8388606;28;19975;-77
2023/04/08 10:30:45;;;;;;;;;;;16.50;99.90;;;;;;8379718;28;20371;-77
2023/04/08 10:34:51;;;;;;;;;;;16.90;99.90;;;;;;8389331;28;20390;-78
2023/04/08 10:38:53;;;;;;;;;;;17.20;99.90;;;;;;8382651;28;20299;-78
2023/04/08 10:42:55;;;;;;;;;;;17.60;99.90;;;;;;8382901;28;19983;-77
2023/04/08 10:46:57;;;;;;;;;;;18.00;99.90;;;;;;8390719;28;19932;-77
2023/04/08 10:50:59;;;;;;;;;;;18.20;99.90;;;;;;8390418;28;20022;-78
2023/04/08 10:55:01;;;;;;;;;;;18.60;99.90;;;;;;8387561;28;20281;-77
2023/04/08 10:59:03;;;;;;;;;;;18.80;99.90;;;;;;8388450;28;19931;-76
2023/04/08 11:03:06;;;;;;;;;;;18.90;99.90;;;;;;8389996;28;19962;-76
2023/04/08 11:07:08;;;;;;;;;;;19.10;99.90;;;;;;8386255;28;20024;-75
2023/04/08 11:11:10;;;;;;;;;;;19.10;99.90;;;;;;8398380;28;19959;-75
2023/04/08 11:15:12;;;;;;;;;;;19.00;99.90;;;;;;8403211;28;19925;-76
2023/04/08 11:19:14;;;;;;;;;;;19.00;99.90;;;;;;8374753;28;19925;-75
2023/04/08 11:23:16;;;;;;;;;;;19.10;99.90;;;;;;8390132;28;19940;-75
2023/04/08 11:27:18;;;;;;;;;;;19.40;99.90;;;;;;8393989;28;20395;-76
2023/04/08 11:31:20;;;;;;;;;;;19.80;99.90;;;;;;8405773;28;20030;-76
2023/04/08 11:35:29;;;;;;;;;;;20.30;99.90;;;;;;8390048;28;19931;-75
2023/04/08 11:39:30;;;;;;;;;;;20.70;99.90;;;;;;8380695;28;19972;-75
2023/04/08 11:43:32;;;;;;;;;;;20.80;99.90;;;;;;8398215;28;19928;-76
2023/04/08 11:47:34;;;;;;;;;;;20.80;99.90;;;;;;8373114;28;19928;-75
2023/04/08 11:51:53;;;;;;;;;;;21.10;99.90;;;;;;8372205;28;20296;-76
2023/04/08 11:55:54;;;;;;;;;;;21.40;99.90;;;;;;8367628;28;21056;-76
2023/04/08 11:59:57;;;;;;;;;;;21.90;99.90;;;;;;8368184;28;19925;-76
2023/04/08 12:04:00;;;;;;;;;;;22.50;99.90;;;;;;8372646;28;20298;-76
2023/04/08 12:08:02;;;;;;;;;;;22.50;99.90;;;;;;8366757;28;19924;-76
2023/04/08 12:12:04;;;;;;;;;;;22.70;99.90;;;;;;8403234;28;20332;-76
2023/04/08 12:16:06;;;;;;;;;;;23.10;99.90;;;;;;8367416;28;19925;-76
2023/04/08 12:20:08;;;;;;;;;;;23.50;99.90;;;;;;8374746;28;19997;-76
2023/04/08 12:24:10;;;;;;;;;;;23.80;99.90;;;;;;8371546;28;19940;-76
2023/04/08 12:28:11;;;;;;;;;;;23.80;99.90;;;;;;8365717;28;20549;-76
2023/04/08 12:42:48;;;;;;;;;;;22.60;99.90;;;;;;8363678;28;20286;-76
2023/04/08 12:46:50;;;;;;;;;;;22.10;99.90;;;;;;8367374;28;19944;-76
2023/04/08 12:50:52;;;;;;;;;;;21.70;99.90;;;;;;8370035;28;19933;-75
2023/04/08 12:54:54;;;;;;;;;;;21.40;99.90;;;;;;8354264;28;19939;-75
2023/04/08 12:58:56;;;;;;;;;;;21.30;99.90;;;;;;8363360;28;20022;-76
2023/04/08 13:02:58;;;;;;;;;;;21.10;99.90;;;;;;8367832;28;20412;-76
2023/04/08 13:06:59;;;;;;;;;;;21.00;99.90;;;;;;8372895;28;19925;-76
2023/04/08 13:11:01;;;;;;;;;;;20.80;99.90;;;;;;8360978;28;21889;-75
2023/04/08 13:15:03;;;;;;;;;;;20.80;99.90;;;;;;8363776;28;19929;-75
2023/04/08 13:19:04;;;;;;;;;;;20.70;99.90;;;;;;8370958;28;19924;-75
2023/04/08 13:23:06;;;;;;;;;;;20.60;99.90;;;;;;8372088;28;19924;-76
2023/04/08 13:27:08;;;;;;;;;;;20.40;99.90;;;;;;8368025;28;19943;-76
2023/04/08 13:31:10;;;;;;;;;;;20.50;99.90;;;;;;8366303;28;19925;-76
2023/04/08 13:35:11;;;;;;;;;;;20.70;99.90;;;;;;8365622;28;19925;-76
2023/04/08 13:39:13;;;;;;;;;;;20.70;99.90;;;;;;8361011;28;19935;-76
2023/04/08 13:43:15;;;;;;;;;;;20.70;99.90;;;;;;8379268;28;19925;-76
2023/04/08 13:47:16;;;;;;;;;;;20.50;99.90;;;;;;8360709;28;20406;-76
2023/04/08 13:51:18;;;;;;;;;;;20.30;99.90;;;;;;8361411;28;20381;-76
2023/04/08 13:55:20;;;;;;;;;;;20.30;99.90;;;;;;8369380;28;19972;-76
2023/04/08 13:59:21;;;;;;;;;;;20.50;99.90;;;;;;8391140;28;19975;-76
2023/04/08 14:03:23;;;;;;;;;;;20.60;99.90;;;;;;8364791;28;19924;-76
2023/04/08 14:07:25;;;;;;;;;;;20.90;99.90;;;;;;8359945;28;20381;-75
2023/04/08 14:11:26;;;;;;;;;;;21.20;99.90;;;;;;8364290;28;19931;-76
2023/04/08 14:15:28;;;;;;;;;;;21.50;99.90;;;;;;8368462;28;19995;-76
2023/04/08 14:19:30;;;;;;;;;;;22.30;99.90;;;;;;8373429;28;19924;-76
2023/04/08 14:23:31;;;;;;;;;;;23.40;99.90;;;;;;8369454;28;19975;-76
2023/04/08 14:27:33;;;;;;;;;;;24.30;99.90;;;;;;8363127;28;19932;-76
2023/04/08 14:31:35;;;;;;;;;;;24.60;99.90;;;;;;8377157;28;19939;-76
2023/04/08 14:35:36;;;;;;;;;;;24.30;99.90;;;;;;8368076;28;20123;-76
2023/04/08 14:39:38;;;;;;;;;;;24.00;99.90;;;;;;8367512;28;19928;-76
2023/04/08 14:43:40;;;;;;;;;;;24.40;99.90;;;;;;8372144;28;19975;-76
2023/04/08 14:47:41;;;;;;;;;;;25.00;99.90;;;;;;8368266;28;19924;-76
2023/04/08 14:51:43;;;;;;;;;;;25.30;99.90;;;;;;8357295;28;20339;-76
2023/04/08 14:55:45;;;;;;;;;;;25.60;99.90;;;;;;8362850;28;19940;-76
2023/04/08 14:59:47;;;;;;;;;;;25.90;99.90;;;;;;8362595;28;19932;-76
2023/04/08 15:03:48;;;;;;;;;;;25.50;99.90;;;;;;8388413;28;19940;-77
2023/04/08 15:07:50;;;;;;;;;;;24.80;99.90;;;;;;8375291;28;20281;-76
2023/04/08 15:11:52;;;;;;;;;;;24.40;99.90;;;;;;8387732;28;20435;-77
2023/04/08 15:15:53;;;;;;;;;;;24.40;99.90;;;;;;8367224;28;24568;-76
2023/04/08 15:19:55;;;;;;;;;;;24.70;99.90;;;;;;8373529;28;20424;-76
2023/04/08 15:23:57;;;;;;;;;;;24.90;99.90;;;;;;8371110;28;20481;-76
2023/04/08 15:27:58;;;;;;;;;;;25.20;99.90;;;;;;8367295;28;20027;-76
2023/04/08 15:32:00;;;;;;;;;;;25.30;99.90;;;;;;8383427;28;19925;-76
2023/04/08 15:36:02;;;;;;;;;;;25.70;99.90;;;;;;8369823;28;20371;-76
2023/04/08 15:40:05;;;;;;;;;;;25.50;99.90;;;;;;8377656;28;19932;-76
2023/04/08 15:44:06;;;;;;;;;;;25.40;99.90;;;;;;8369919;28;20364;-76
2023/04/08 15:48:10;;;;;;;;;;;25.70;99.90;;;;;;8370764;28;20379;-76
2023/04/08 15:52:12;;;;;;;;;;;26.40;99.90;;;;;;8370929;28;19931;-76
2023/04/08 15:56:14;;;;;;;;;;;26.90;99.90;;;;;;8364677;28;19925;-76
2023/04/08 16:00:16;;;;;;;;;;;27.20;99.90;;;;;;8365240;28;19929;-76
2023/04/08 16:04:18;;;;;;;;;;;26.80;99.90;;;;;;8368088;28;19932;-76
2023/04/08 16:08:20;;;;;;;;;;;26.60;99.90;;;;;;8404791;28;19935;-76
2023/04/08 16:12:23;;;;;;;;;;;26.30;99.90;;;;;;8373282;28;19925;-76
2023/04/08 16:16:25;;;;;;;;;;;25.90;99.90;;;;;;8367604;28;19925;-76
2023/04/08 16:20:27;;;;;;;;;;;25.50;99.90;;;;;;8365906;28;20019;-76
2023/04/08 16:24:29;;;;;;;;;;;25.40;99.90;;;;;;8363406;28;20407;-76
2023/04/08 16:28:31;;;;;;;;;;;25.80;99.90;;;;;;8369639;28;19928;-76
2023/04/08 16:32:33;;;;;;;;;;;26.20;99.90;;;;;;8375612;28;19924;-76
2023/04/08 16:36:35;;;;;;;;;;;26.30;99.90;;;;;;8367132;28;20018;-76
2023/04/08 16:40:38;;;;;;;;;;;26.50;99.90;;;;;;8364923;28;20447;-77
2023/04/08 16:44:39;;;;;;;;;;;26.50;99.90;;;;;;8365054;28;20295;-76
2023/04/08 16:48:42;;;;;;;;;;;26.40;99.90;;;;;;8361894;28;19929;-77
2023/04/08 16:52:48;;;;;;;;;;;26.50;99.90;;;;;;8367321;28;19932;-77
2023/04/08 16:56:50;;;;;;;;;;;26.60;99.90;;;;;;8366348;28;19976;-76
2023/04/08 17:00:51;;;;;;;;;;;26.40;99.90;;;;;;8368411;28;19931;-76
2023/04/08 17:04:53;;;;;;;;;;;26.30;99.90;;;;;;8380665;28;19931;-76
2023/04/08 17:08:54;;;;;;;;;;;26.10;99.90;;;;;;8369416;28;19925;-77
2023/04/08 17:12:56;;;;;;;;;;;26.00;99.90;;;;;;8369438;28;20361;-76
2023/04/08 17:16:58;;;;;;;;;;;25.90;99.90;;;;;;8379824;28;20019;-76
2023/04/08 17:21:00;;;;;;;;;;;25.60;98.50;;;;;;8361731;28;20051;-76
2023/04/08 17:25:02;;;;;;;;;;;25.40;99.90;;;;;;8367980;28;19937;-76
2023/04/08 17:29:03;;;;;;;;;;;25.20;99.90;;;;;;8401489;28;19929;-76
2023/04/08 17:33:06;;;;;;;;;;;24.90;97.50;;;;;;8364408;28;19924;-76
2023/04/08 17:37:09;;;;;;;;;;;24.50;99.90;;;;;;8367345;28;20028;-76
2023/04/08 17:41:11;;;;;;;;;;;24.00;99.30;;;;;;8366148;28;20381;-76
2023/04/08 17:45:14;;;;;;;;;;;23.30;95.50;;;;;;8359101;28;20010;-76
2023/04/08 17:49:15;;;;;;;;;;;22.80;97.20;;;;;;8352830;28;19932;-76
2023/04/08 17:53:17;;;;;;;;;;;22.30;97.40;;;;;;8366925;28;20027;-76
2023/04/08 17:57:19;;;;;;;;;;;21.80;97.10;;;;;;8385505;28;19967;-76
2023/04/08 18:01:21;;;;;;;;;;;21.30;97.80;;;;;;8378913;28;19936;-76
2023/04/08 18:05:23;;;;;;;;;;;20.90;96.10;;;;;;8396781;28;19971;-76
2023/04/08 18:09:24;;;;;;;;;;;20.40;96.50;;;;;;8354846;28;19936;-75
2023/04/08 18:13:26;;;;;;;;;;;20.00;95.70;;;;;;8370474;28;19931;-75
2023/04/08 18:17:28;;;;;;;;;;;19.70;96.00;;;;;;8405365;27;20358;-76
2023/04/08 18:21:30;;;;;;;;;;;19.40;95.90;;;;;;8370205;28;19930;-76
2023/04/08 18:25:33;;;;;;;;;;;19.20;96.10;;;;;;8372294;28;19974;-76
2023/04/08 18:29:34;;;;;;;;;;;18.90;96.50;;;;;;8368794;28;19947;-75
2023/04/08 18:33:37;;;;;;;;;;;18.60;96.50;;;;;;8367485;28;20316;-76
2023/04/08 18:37:40;;;;;;;;;;;18.50;96.70;;;;;;8371897;28;19936;-75
2023/04/08 18:51:55;;;;;;;;;;;17.90;97.20;;;;;;8362505;28;19934;-76
2023/04/08 18:56:03;;;;;;;;;;;17.70;97.40;;;;;;8367639;28;20046;-76
2023/04/08 19:00:06;;;;;;;;;;;17.60;97.40;;;;;;8374091;28;19929;-75
2023/04/08 19:04:08;;;;;;;;;;;17.50;97.50;;;;;;8387360;28;19924;-75
2023/04/08 19:08:10;;;;;;;;;;;17.40;97.70;;;;;;8400372;27;19932;-76
2023/04/08 19:12:12;;;;;;;;;;;17.20;97.70;;;;;;8376250;28;19955;-76
2023/04/08 19:16:13;;;;;;;;;;;17.10;98.00;;;;;;8365162;28;20492;-76
2023/04/08 19:20:15;;;;;;;;;;;17.00;97.80;;;;;;8383120;28;19932;-76
2023/04/08 19:24:17;;;;;;;;;;;16.90;98.30;;;;;;8366094;28;19931;-76
2023/04/08 19:28:19;;;;;;;;;;;16.70;98.00;;;;;;8366866;28;19972;-75
2023/04/08 19:32:21;;;;;;;;;;;16.60;98.50;;;;;;8371493;28;19936;-76
2023/04/08 19:36:22;;;;;;;;;;;16.50;98.80;;;;;;8377168;28;19932;-75
2023/04/08 19:40:24;;;;;;;;;;;16.50;98.70;;;;;;8364258;28;19929;-76
2023/04/08 19:44:26;;;;;;;;;;;16.50;98.90;;;;;;8367918;28;20296;-75
2023/04/08 19:48:27;;;;;;;;;;;16.60;98.90;;;;;;8369046;28;19924;-75
2023/04/08 19:52:30;;;;;;;;;;;16.50;98.10;;;;;;8367012;28;19925;-76
2023/04/08 19:56:32;;;;;;;;;;;16.50;98.50;;;;;;8367785;28;20442;-75
2023/04/08 20:00:37;;;;;;;;;;;16.30;98.30;;;;;;8362196;28;19929;-76
2023/04/08 20:04:39;;;;;;;;;;;16.20;97.80;;;;;;8371056;28;19983;-75
2023/04/08 20:08:40;;;;;;;;;;;16.20;97.40;;;;;;8367259;28;19967;-75
2023/04/08 20:12:42;;;;;;;;;;;16.10;97.80;;;;;;8363467;28;19929;-76
2023/04/08 20:16:44;;;;;;;;;;;16.10;97.80;;;;;;8364344;28;19979;-76
2023/04/08 20:20:47;;;;;;;;;;;15.90;98.40;;;;;;8364088;28;19976;-75
2023/04/08 20:24:49;;;;;;;;;;;15.80;97.70;;;;;;8365845;28;19951;-75
2023/04/08 20:28:51;;;;;;;;;;;15.80;97.50;;;;;;8362620;28;19929;-75
2023/04/08 20:32:52;;;;;;;;;;;15.70;97.50;;;;;;8361037;28;19925;-76
2023/04/08 20:36:55;;;;;;;;;;;15.70;97.50;;;;;;8359818;28;19932;-75
2023/04/08 20:40:56;;;;;;;;;;;15.70;97.20;;;;;;8361275;28;19925;-76
2023/04/08 20:44:59;;;;;;;;;;;15.50;97.80;;;;;;8371916;28;19949;-75
2023/04/08 20:49:02;;;;;;;;;;;15.20;99.40;;;;;;8361063;28;19929;-76
2023/04/08 20:53:04;;;;;;;;;;;15.10;99.60;;;;;;8358001;28;20319;-75
2023/04/08 20:57:05;;;;;;;;;;;14.90;99.90;;;;;;8364948;28;19947;-75
2023/04/08 21:01:07;;;;;;;;;;;14.70;99.90;;;;;;8397551;28;20103;-75
2023/04/08 21:05:09;;;;;;;;;;;14.60;99.50;;;;;;8402317;28;19928;-75
2023/04/08 21:09:13;;;;;;;;;;;14.50;99.90;;;;;;8380447;28;19947;-75
2023/04/08 21:13:15;;;;;;;;;;;14.50;99.90;;;;;;8392596;28;19924;-75
2023/04/08 21:17:17;;;;;;;;;;;14.30;99.90;;;;;;8385580;28;19932;-75
2023/04/08 21:21:18;;;;;;;;;;;14.20;99.90;;;;;;8367167;28;19936;-75
2023/04/08 21:25:20;;;;;;;;;;;14.20;99.90;;;;;;8379764;28;19938;-75
2023/04/08 21:29:21;;;;;;;;;;;14.20;99.90;;;;;;8371402;28;19956;-75
2023/04/08 21:33:23;;;;;;;;;;;14.10;99.90;;;;;;8382424;28;19925;-75
2023/04/08 21:37:25;;;;;;;;;;;14.00;99.90;;;;;;8406966;28;19925;-75
2023/04/08 21:41:27;;;;;;;;;;;13.90;99.90;;;;;;8368819;28;19959;-75
2023/04/08 21:45:30;;;;;;;;;;;13.80;99.90;;;;;;8412486;28;19925;-75
2023/04/08 21:49:32;;;;;;;;;;;13.80;99.90;;;;;;8372425;28;20015;-75
2023/04/08 21:53:34;;;;;;;;;;;13.70;99.90;;;;;;8391435;28;19924;-75
2023/04/08 21:57:35;;;;;;;;;;;13.70;98.90;;;;;;8366901;28;19925;-75
2023/04/08 22:01:39;;;;;;;;;;;13.60;99.20;;;;;;8378506;28;20126;-75
2023/04/08 22:05:41;;;;;;;;;;;13.50;99.90;;;;;;8374310;28;19964;-75
2023/04/08 22:09:42;;;;;;;;;;;13.50;99.90;;;;;;8373418;28;19929;-75
2023/04/08 22:13:44;;;;;;;;;;;13.40;99.90;;;;;;8364990;28;19925;-75
2023/04/08 22:17:45;;;;;;;;;;;13.40;99.40;;;;;;8386319;28;20022;-75
2023/04/08 22:21:49;;;;;;;;;;;13.30;99.70;;;;;;8370779;28;19977;-76
2023/04/08 22:25:51;;;;;;;;;;;13.20;99.90;;;;;;8391559;28;19928;-75
2023/04/08 22:29:53;;;;;;;;;;;13.20;99.50;;;;;;8374565;28;19964;-75
2023/04/08 22:33:55;;;;;;;;;;;13.10;99.50;;;;;;8380092;28;20027;-75
2023/04/08 22:37:56;;;;;;;;;;;13.00;99.90;;;;;;8388545;28;19971;-75
2023/04/08 22:41:58;;;;;;;;;;;12.90;99.90;;;;;;8381444;28;19984;-75
2023/04/08 22:45:59;;;;;;;;;;;12.70;99.90;;;;;;8394665;28;19931;-75
2023/04/08 22:50:01;;;;;;;;;;;12.60;99.90;;;;;;8419235;28;19933;-75
2023/04/08 22:54:03;;;;;;;;;;;12.50;99.90;;;;;;8361241;28;19932;-75
2023/04/08 22:58:04;;;;;;;;;;;12.40;99.90;;;;;;8380365;28;20380;-77
2023/04/08 23:02:06;;;;;;;;;;;12.40;99.90;;;;;;8412315;28;20344;-77
2023/04/08 23:06:08;;;;;;;;;;;12.30;99.90;;;;;;8376708;28;19968;-77
2023/04/08 23:10:09;;;;;;;;;;;12.30;99.90;;;;;;8390666;28;19924;-77
2023/04/08 23:14:11;;;;;;;;;;;12.20;99.90;;;;;;8401644;28;19986;-77
2023/04/08 23:18:13;;;;;;;;;;;12.20;99.90;;;;;;8386472;28;19932;-77
2023/04/08 23:22:23;;;;;;;;;;;12.20;99.90;;;;;;8392973;28;19924;-77
2023/04/08 23:26:25;;;;;;;;;;;12.10;99.90;;;;;;8395042;28;20394;-77
2023/04/08 23:30:27;;;;;;;;;;;12.10;99.90;;;;;;8392105;28;19924;-77
2023/04/08 23:34:28;;;;;;;;;;;12.20;99.90;;;;;;8378944;28;19972;-77
2023/04/08 23:38:30;;;;;;;;;;;12.20;99.90;;;;;;8388267;28;19928;-77
2023/04/08 23:52:38;;;;;;;;;;;12.10;99.90;;;;;;8380725;28;19967;-77
2023/04/08 23:56:40;;;;;;;;;;;12.10;99.90;;;;;;8386775;28;20019;-77
